Time;durP1;ratioP1;P1;durP2;ratioP2;P2;SDS_P1;SDS_P2;PMS_P1;PMS_P2;Temp;Humidity;BMP_temperature;BMP_pressure;BME280_temperature;BME280_humidity;BME280_pressure;Samples;Min_cycle;Max_cycle;Signal;HPM_P1;HPM_P2
2023/05/10 00:01:52;;;;;;;;;;;13.30;99.90;;;;;;5063605;28;20367;-70
2023/05/10 00:04:18;;;;;;;;;;;13.30;99.90;;;;;;5055892;28;19924;-70
2023/05/10 00:06:43;;;;;;;;;;;13.20;99.90;;;;;;5067505;28;19925;-70
2023/05/10 00:09:09;;;;;;;;;;;13.10;99.90;;;;;;5074128;28;19961;-69
2023/05/10 00:11:35;;;;;;;;;;;13.20;99.90;;;;;;5072668;28;19969;-69
2023/05/10 00:14:00;;;;;;;;;;;13.10;99.90;;;;;;5073619;28;19931;-69
2023/05/10 00:16:25;;;;;;;;;;;13.10;99.90;;;;;;5062431;28;19935;-70
2023/05/10 00:18:51;;;;;;;;;;;13.10;99.90;;;;;;5069122;28;19925;-70
2023/05/10 00:21:16;;;;;;;;;;;13.00;99.90;;;;;;5072369;28;19925;-70
2023/05/10 00:23:42;;;;;;;;;;;13.00;99.90;;;;;;5073738;28;19924;-70
2023/05/10 00:26:08;;;;;;;;;;;13.00;99.90;;;;;;5072986;28;20325;-69
2023/05/10 00:28:33;;;;;;;;;;;13.00;99.90;;;;;;5090256;28;19924;-70
2023/05/10 00:30:59;;;;;;;;;;;13.00;99.90;;;;;;5071913;28;19971;-69
2023/05/10 00:33:24;;;;;;;;;;;12.90;99.90;;;;;;5067380;28;19986;-72
2023/05/10 00:35:50;;;;;;;;;;;12.90;99.90;;;;;;5063031;28;19958;-70
2023/05/10 00:38:15;;;;;;;;;;;12.90;99.90;;;;;;5073478;28;20011;-69
2023/05/10 00:40:41;;;;;;;;;;;12.90;99.90;;;;;;5089863;28;19931;-69
2023/05/10 00:43:07;;;;;;;;;;;12.90;99.90;;;;;;5063553;28;19925;-69
2023/05/10 00:45:32;;;;;;;;;;;12.80;99.90;;;;;;5059126;28;20470;-69
2023/05/10 00:47:59;;;;;;;;;;;12.80;99.90;;;;;;5071711;28;19931;-70
2023/05/10 00:50:25;;;;;;;;;;;12.80;99.90;;;;;;5055147;28;19925;-70
2023/05/10 00:52:51;;;;;;;;;;;12.80;99.90;;;;;;5070839;28;19932;-70
2023/05/10 00:55:25;;;;;;;;;;;12.80;99.90;;;;;;5083182;28;19916;-70
2023/05/10 00:57:51;;;;;;;;;;;12.80;99.90;;;;;;5087304;28;19982;-70
2023/05/10 01:00:18;;;;;;;;;;;12.80;99.90;;;;;;5057470;28;19933;-70
2023/05/10 01:02:47;;;;;;;;;;;12.70;99.90;;;;;;5081255;28;19932;-71
2023/05/10 01:05:12;;;;;;;;;;;12.70;99.90;;;;;;5078076;28;19963;-69
2023/05/10 01:07:38;;;;;;;;;;;12.70;99.90;;;;;;5080901;28;19966;-70
2023/05/10 01:10:04;;;;;;;;;;;12.60;99.90;;;;;;5088445;28;19932;-69
2023/05/10 01:12:30;;;;;;;;;;;12.60;99.90;;;;;;5081807;28;19932;-69
2023/05/10 01:14:56;;;;;;;;;;;12.60;99.90;;;;;;5080853;28;19928;-69
2023/05/10 01:17:22;;;;;;;;;;;12.60;99.90;;;;;;5082288;28;19978;-70
2023/05/10 01:19:48;;;;;;;;;;;12.50;99.90;;;;;;5086692;28;19924;-70
2023/05/10 01:22:36;;;;;;;;;;;12.50;99.90;;;;;;5077436;28;19932;-70
2023/05/10 01:25:08;;;;;;;;;;;12.50;99.90;;;;;;5081691;28;19983;-71
2023/05/10 01:27:52;;;;;;;;;;;12.50;99.90;;;;;;5082555;28;19929;-72
2023/05/10 01:30:23;;;;;;;;;;;12.50;99.90;;;;;;5087030;28;19925;-70
2023/05/10 01:32:50;;;;;;;;;;;12.50;99.90;;;;;;5076808;28;19928;-71
2023/05/10 01:35:17;;;;;;;;;;;12.50;99.90;;;;;;5072861;28;19925;-72
2023/05/10 01:37:57;;;;;;;;;;;12.50;99.90;;;;;;5075744;28;19925;-70
2023/05/10 01:40:41;;;;;;;;;;;12.50;99.90;;;;;;5081327;28;19928;-70
2023/05/10 01:43:10;;;;;;;;;;;12.50;99.90;;;;;;5069546;28;19970;-70
2023/05/10 01:46:10;;;;;;;;;;;12.50;99.90;;;;;;5074743;28;20724;-70
2023/05/10 01:48:37;;;;;;;;;;;12.50;99.90;;;;;;5068857;28;19971;-70
2023/05/10 01:51:04;;;;;;;;;;;12.40;99.90;;;;;;5085600;28;19931;-69
2023/05/10 01:53:31;;;;;;;;;;;12.40;99.90;;;;;;5081444;28;20000;-70
2023/05/10 01:55:58;;;;;;;;;;;12.40;99.90;;;;;;5083070;28;19970;-71
2023/05/10 01:58:29;;;;;;;;;;;12.30;99.90;;;;;;5078078;28;19928;-69
2023/05/10 02:00:55;;;;;;;;;;;12.40;99.90;;;;;;5074117;28;20386;-69
2023/05/10 02:03:23;;;;;;;;;;;12.40;99.90;;;;;;5059599;28;19925;-70
2023/05/10 02:05:49;;;;;;;;;;;12.30;99.90;;;;;;5062132;28;19971;-69
2023/05/10 02:08:17;;;;;;;;;;;12.30;99.90;;;;;;5049169;28;20090;-69
2023/05/10 02:10:43;;;;;;;;;;;12.30;99.90;;;;;;5065648;28;20023;-70
2023/05/10 02:13:09;;;;;;;;;;;12.30;99.90;;;;;;5074009;28;20402;-70
2023/05/10 02:15:36;;;;;;;;;;;12.40;99.90;;;;;;5070972;28;20289;-70
2023/05/10 02:18:03;;;;;;;;;;;12.40;99.90;;;;;;5069732;28;19924;-70
2023/05/10 02:20:31;;;;;;;;;;;12.30;99.90;;;;;;5058406;28;19925;-70
2023/05/10 02:22:57;;;;;;;;;;;12.30;99.90;;;;;;5070488;28;19932;-70
2023/05/10 02:25:23;;;;;;;;;;;12.30;99.90;;;;;;5046282;28;19994;-69
2023/05/10 02:27:49;;;;;;;;;;;12.30;99.90;;;;;;5056721;28;19931;-69
2023/05/10 02:30:16;;;;;;;;;;;12.30;99.90;;;;;;5068401;28;19925;-70
2023/05/10 02:32:42;;;;;;;;;;;12.30;99.90;;;;;;5071457;28;19925;-71
2023/05/10 02:35:09;;;;;;;;;;;12.30;99.90;;;;;;5070836;28;19924;-69
2023/05/10 02:37:36;;;;;;;;;;;12.30;99.90;;;;;;5068279;28;19932;-70
2023/05/10 02:40:03;;;;;;;;;;;12.30;99.90;;;;;;5065229;28;19970;-71
2023/05/10 02:42:30;;;;;;;;;;;12.30;99.90;;;;;;5055838;28;19925;-70
2023/05/10 02:44:59;;;;;;;;;;;12.30;99.90;;;;;;5062407;28;20297;-70
2023/05/10 02:47:24;;;;;;;;;;;12.30;99.90;;;;;;5056122;28;19924;-70
2023/05/10 02:49:50;;;;;;;;;;;12.40;99.90;;;;;;5054591;28;20070;-70
2023/05/10 02:52:19;;;;;;;;;;;12.30;99.90;;;;;;5043372;28;19930;-70
2023/05/10 02:54:45;;;;;;;;;;;12.30;99.90;;;;;;5057033;28;19932;-71
2023/05/10 02:57:12;;;;;;;;;;;12.40;99.90;;;;;;5068643;28;19932;-70
2023/05/10 02:59:37;;;;;;;;;;;12.30;99.90;;;;;;5069024;28;19932;-70
2023/05/10 03:02:03;;;;;;;;;;;12.30;99.90;;;;;;5058833;28;19925;-70
2023/05/10 03:04:29;;;;;;;;;;;12.30;99.90;;;;;;5067424;28;20358;-70
2023/05/10 03:06:54;;;;;;;;;;;12.40;99.90;;;;;;5059106;28;20007;-70
2023/05/10 03:09:21;;;;;;;;;;;12.40;99.90;;;;;;5063729;28;19932;-70
2023/05/10 03:11:55;;;;;;;;;;;12.30;99.90;;;;;;5072005;28;19935;-69
2023/05/10 03:14:25;;;;;;;;;;;12.30;99.90;;;;;;5065791;28;19935;-69
2023/05/10 03:17:07;;;;;;;;;;;12.30;99.90;;;;;;5067012;28;19936;-69
2023/05/10 03:19:36;;;;;;;;;;;12.30;99.90;;;;;;5062283;28;19950;-70
2023/05/10 03:22:08;;;;;;;;;;;12.30;99.90;;;;;;5066929;28;19929;-70
2023/05/10 03:24:34;;;;;;;;;;;12.30;99.90;;;;;;5068035;28;19924;-70
2023/05/10 03:27:02;;;;;;;;;;;12.30;99.90;;;;;;5070647;28;19932;-71
2023/05/10 03:29:29;;;;;;;;;;;12.30;99.90;;;;;;5070037;28;19924;-70
2023/05/10 03:31:54;;;;;;;;;;;12.30;99.90;;;;;;5063782;28;19925;-70
2023/05/10 03:34:24;;;;;;;;;;;12.30;99.90;;;;;;5066540;28;19930;-70
2023/05/10 03:36:49;;;;;;;;;;;12.30;99.90;;;;;;5069880;28;20509;-70
2023/05/10 03:39:15;;;;;;;;;;;12.30;99.90;;;;;;5067485;28;19974;-70
2023/05/10 03:41:41;;;;;;;;;;;12.30;99.90;;;;;;5069392;28;19931;-70
2023/05/10 03:44:06;;;;;;;;;;;12.30;99.90;;;;;;5068922;28;19958;-70
2023/05/10 03:46:32;;;;;;;;;;;12.30;99.90;;;;;;5061986;28;20371;-70
2023/05/10 03:48:57;;;;;;;;;;;12.40;99.90;;;;;;5054872;28;20310;-71
2023/05/10 03:51:25;;;;;;;;;;;12.30;99.90;;;;;;5039081;28;19976;-70
2023/05/10 03:53:50;;;;;;;;;;;12.30;99.90;;;;;;5065172;28;19925;-70
2023/05/10 03:56:16;;;;;;;;;;;12.30;99.90;;;;;;5062201;28;19925;-70
2023/05/10 03:58:41;;;;;;;;;;;12.30;99.90;;;;;;5064025;28;19925;-70
2023/05/10 04:01:07;;;;;;;;;;;12.20;99.90;;;;;;5067662;28;20374;-70
2023/05/10 04:03:32;;;;;;;;;;;12.30;99.90;;;;;;5062802;28;19932;-70
2023/05/10 04:05:58;;;;;;;;;;;12.30;99.90;;;;;;5061359;28;20079;-71
2023/05/10 04:08:24;;;;;;;;;;;12.30;99.90;;;;;;5069775;28;19924;-72
2023/05/10 04:10:49;;;;;;;;;;;12.40;99.90;;;;;;5070280;28;20294;-70
2023/05/10 04:13:15;;;;;;;;;;;12.30;99.90;;;;;;5055065;28;19933;-70
2023/05/10 04:15:41;;;;;;;;;;;12.30;99.90;;;;;;5070726;28;20401;-70
2023/05/10 04:18:06;;;;;;;;;;;12.30;99.90;;;;;;5062726;28;19933;-70
2023/05/10 04:20:32;;;;;;;;;;;12.30;99.90;;;;;;5066137;28;20023;-71
2023/05/10 04:22:58;;;;;;;;;;;12.10;99.90;;;;;;5062853;28;19924;-70
2023/05/10 04:25:23;;;;;;;;;;;12.20;99.90;;;;;;5069657;28;19924;-70
2023/05/10 04:27:49;;;;;;;;;;;12.20;99.90;;;;;;5065609;28;20324;-70
2023/05/10 04:30:14;;;;;;;;;;;12.20;99.90;;;;;;5072709;28;19925;-70
2023/05/10 04:32:40;;;;;;;;;;;12.20;99.90;;;;;;5069789;28;19970;-70
2023/05/10 04:35:05;;;;;;;;;;;12.10;99.90;;;;;;5060713;28;20011;-70
2023/05/10 04:37:31;;;;;;;;;;;12.10;99.90;;;;;;5058503;28;19925;-70
2023/05/10 04:39:56;;;;;;;;;;;12.10;99.90;;;;;;5060026;28;19924;-69
2023/05/10 04:42:22;;;;;;;;;;;12.10;99.90;;;;;;5068827;28;19924;-70
2023/05/10 04:44:48;;;;;;;;;;;12.10;99.90;;;;;;5059139;28;19932;-69
2023/05/10 04:47:13;;;;;;;;;;;12.10;99.90;;;;;;5066588;28;20405;-70
2023/05/10 04:49:39;;;;;;;;;;;12.00;99.90;;;;;;5070013;28;19980;-70
2023/05/10 04:52:04;;;;;;;;;;;12.10;99.90;;;;;;5068848;28;19925;-70
2023/05/10 04:54:30;;;;;;;;;;;12.00;99.90;;;;;;5066547;28;19928;-70
2023/05/10 04:56:55;;;;;;;;;;;12.10;99.90;;;;;;5067278;28;19924;-70
2023/05/10 04:59:21;;;;;;;;;;;12.10;99.90;;;;;;5062425;28;19943;-71
2023/05/10 05:01:47;;;;;;;;;;;12.10;99.90;;;;;;5062143;28;19932;-70
2023/05/10 05:04:12;;;;;;;;;;;12.10;99.90;;;;;;5056399;28;20021;-70
2023/05/10 05:06:38;;;;;;;;;;;12.10;99.90;;;;;;5054640;28;19931;-71
2023/05/10 05:09:04;;;;;;;;;;;12.10;99.90;;;;;;5056188;28;19929;-70
2023/05/10 05:11:29;;;;;;;;;;;12.10;99.90;;;;;;5038536;28;19932;-71
2023/05/10 05:13:55;;;;;;;;;;;12.10;99.90;;;;;;5059965;28;20394;-71
2023/05/10 05:16:21;;;;;;;;;;;11.90;99.90;;;;;;5061034;28;19986;-70
2023/05/10 05:18:46;;;;;;;;;;;12.10;99.90;;;;;;5062671;28;19924;-70
2023/05/10 05:21:16;;;;;;;;;;;12.00;99.90;;;;;;5071145;28;19935;-70
2023/05/10 05:23:41;;;;;;;;;;;12.10;99.90;;;;;;5055701;28;19931;-70
2023/05/10 05:26:07;;;;;;;;;;;12.10;99.90;;;;;;5066917;28;19928;-71
2023/05/10 05:28:36;;;;;;;;;;;12.10;99.90;;;;;;5069326;28;19932;-69
2023/05/10 05:31:02;;;;;;;;;;;12.20;99.90;;;;;;5045416;28;19932;-70
2023/05/10 05:33:28;;;;;;;;;;;12.20;99.90;;;;;;5068753;28;19977;-70
2023/05/10 05:35:53;;;;;;;;;;;12.20;99.90;;;;;;5067726;28;19928;-72
2023/05/10 05:38:19;;;;;;;;;;;12.20;99.90;;;;;;5064585;28;19925;-70
2023/05/10 05:40:45;;;;;;;;;;;12.20;99.90;;;;;;5065881;28;19925;-71
2023/05/10 05:43:11;;;;;;;;;;;12.20;99.90;;;;;;5073986;28;20445;-70
2023/05/10 05:45:36;;;;;;;;;;;12.20;99.90;;;;;;5060429;28;19960;-70
2023/05/10 05:48:02;;;;;;;;;;;12.20;99.90;;;;;;5060351;28;20375;-69
2023/05/10 05:50:27;;;;;;;;;;;12.20;99.90;;;;;;5064408;28;19946;-69
2023/05/10 05:52:53;;;;;;;;;;;12.20;99.90;;;;;;5067324;28;20096;-69
2023/05/10 05:55:19;;;;;;;;;;;12.20;99.90;;;;;;5068901;28;20027;-69
2023/05/10 05:57:44;;;;;;;;;;;12.20;99.90;;;;;;5060202;28;19931;-70
2023/05/10 06:00:10;;;;;;;;;;;12.20;99.90;;;;;;5058334;28;20462;-69
2023/05/10 06:02:36;;;;;;;;;;;12.20;99.90;;;;;;5047608;28;19930;-69
2023/05/10 06:05:02;;;;;;;;;;;12.20;99.90;;;;;;5067284;28;19930;-69
2023/05/10 06:07:27;;;;;;;;;;;12.20;99.90;;;;;;5064298;28;19925;-67
2023/05/10 06:09:53;;;;;;;;;;;12.20;99.90;;;;;;5068547;28;19979;-69
2023/05/10 06:12:18;;;;;;;;;;;12.20;99.90;;;;;;5060649;28;19953;-68
2023/05/10 06:14:44;;;;;;;;;;;12.30;99.90;;;;;;5069805;28;20279;-69
2023/05/10 06:17:09;;;;;;;;;;;12.20;99.90;;;;;;5059598;28;19925;-69
2023/05/10 06:19:36;;;;;;;;;;;12.20;99.90;;;;;;5069052;28;19924;-69
2023/05/10 06:22:02;;;;;;;;;;;12.30;99.90;;;;;;5072816;28;20400;-69
2023/05/10 06:24:27;;;;;;;;;;;12.30;99.90;;;;;;5063846;28;20019;-68
2023/05/10 06:26:53;;;;;;;;;;;12.30;99.90;;;;;;5057602;28;19929;-68
2023/05/10 06:29:18;;;;;;;;;;;12.30;99.90;;;;;;5071182;28;20282;-68
2023/05/10 06:31:44;;;;;;;;;;;12.30;99.90;;;;;;5058687;28;19925;-68
2023/05/10 06:34:11;;;;;;;;;;;12.20;99.90;;;;;;5058382;28;19925;-68
2023/05/10 06:36:37;;;;;;;;;;;12.30;99.90;;;;;;5068424;28;19968;-69
2023/05/10 06:39:03;;;;;;;;;;;12.30;99.90;;;;;;5061853;28;19924;-69
2023/05/10 06:41:28;;;;;;;;;;;12.20;99.90;;;;;;5054885;28;19924;-70
2023/05/10 06:43:54;;;;;;;;;;;12.20;99.90;;;;;;5063557;28;19932;-68
2023/05/10 06:46:19;;;;;;;;;;;12.20;99.90;;;;;;5040167;28;19924;-68
2023/05/10 06:48:45;;;;;;;;;;;12.10;99.90;;;;;;5073568;28;20008;-69
2023/05/10 06:51:10;;;;;;;;;;;12.10;99.90;;;;;;5061872;28;19924;-69
2023/05/10 06:53:36;;;;;;;;;;;12.10;99.90;;;;;;5074642;28;19932;-69
2023/05/10 06:56:02;;;;;;;;;;;12.10;99.90;;;;;;5073389;28;19931;-69
2023/05/10 06:58:28;;;;;;;;;;;12.10;99.90;;;;;;5074543;28;20003;-69
2023/05/10 07:00:53;;;;;;;;;;;12.00;99.90;;;;;;5069141;28;20020;-69
2023/05/10 07:03:19;;;;;;;;;;;12.10;99.90;;;;;;5070710;28;19986;-69
2023/05/10 07:05:44;;;;;;;;;;;12.00;99.90;;;;;;5072828;28;20233;-69
2023/05/10 07:08:10;;;;;;;;;;;12.00;99.90;;;;;;5063387;28;19924;-69
2023/05/10 07:10:35;;;;;;;;;;;12.00;99.90;;;;;;5054454;28;19929;-69
2023/05/10 07:13:01;;;;;;;;;;;12.00;99.90;;;;;;5054778;28;19933;-69
2023/05/10 07:15:27;;;;;;;;;;;12.10;99.90;;;;;;5080984;28;19925;-69
2023/05/10 07:17:55;;;;;;;;;;;12.00;99.90;;;;;;5061322;28;20454;-69
2023/05/10 07:20:21;;;;;;;;;;;12.00;99.90;;;;;;5065940;28;19928;-69
2023/05/10 07:22:46;;;;;;;;;;;12.10;99.90;;;;;;5073397;28;19967;-69
2023/05/10 07:25:12;;;;;;;;;;;12.10;99.90;;;;;;5069644;28;19924;-69
2023/05/10 07:27:37;;;;;;;;;;;12.10;99.90;;;;;;5059856;28;19931;-69
2023/05/10 07:30:03;;;;;;;;;;;12.10;99.90;;;;;;5065673;28;19932;-70
2023/05/10 07:32:28;;;;;;;;;;;12.10;99.90;;;;;;5069128;28;20264;-70
2023/05/10 07:34:54;;;;;;;;;;;12.10;99.90;;;;;;5065723;28;20015;-69
2023/05/10 07:37:19;;;;;;;;;;;12.20;99.90;;;;;;5072658;28;19946;-67
2023/05/10 07:39:45;;;;;;;;;;;12.30;99.90;;;;;;5055850;28;20409;-68
2023/05/10 07:42:10;;;;;;;;;;;12.30;99.90;;;;;;5069672;28;20355;-69
2023/05/10 07:44:36;;;;;;;;;;;12.30;99.90;;;;;;5073690;28;20394;-68
2023/05/10 07:47:01;;;;;;;;;;;12.30;99.90;;;;;;5073734;28;19971;-69
2023/05/10 07:49:27;;;;;;;;;;;12.40;99.90;;;;;;5058360;28;19972;-69
2023/05/10 07:51:52;;;;;;;;;;;12.40;99.90;;;;;;5054063;28;19964;-70
2023/05/10 07:54:18;;;;;;;;;;;12.50;99.90;;;;;;5053782;28;19947;-69
2023/05/10 07:56:46;;;;;;;;;;;12.50;99.90;;;;;;5063290;28;19928;-69
2023/05/10 07:59:18;;;;;;;;;;;12.50;99.90;;;;;;5072352;28;19931;-69
2023/05/10 08:01:44;;;;;;;;;;;12.50;99.90;;;;;;5073348;28;19964;-69
2023/05/10 08:04:09;;;;;;;;;;;12.50;99.90;;;;;;5072857;28;19951;-69
2023/05/10 08:06:35;;;;;;;;;;;12.50;99.90;;;;;;5073790;28;19932;-69
2023/05/10 08:09:01;;;;;;;;;;;12.40;99.90;;;;;;5061935;28;20015;-69
2023/05/10 08:11:27;;;;;;;;;;;12.40;99.90;;;;;;5053454;28;19979;-69
2023/05/10 08:13:53;;;;;;;;;;;12.40;99.90;;;;;;5053556;28;19964;-69
2023/05/10 08:16:19;;;;;;;;;;;12.40;99.90;;;;;;5064802;28;19976;-68
2023/05/10 08:18:46;;;;;;;;;;;12.40;99.90;;;;;;5073603;28;19924;-68
2023/05/10 08:21:12;;;;;;;;;;;12.40;99.90;;;;;;5055270;28;20290;-69
2023/05/10 08:23:38;;;;;;;;;;;12.40;99.90;;;;;;5028878;28;19925;-69
2023/05/10 08:26:03;;;;;;;;;;;12.30;99.90;;;;;;5057008;28;20040;-69
2023/05/10 08:28:29;;;;;;;;;;;12.40;99.90;;;;;;5071446;28;20325;-69
2023/05/10 08:30:55;;;;;;;;;;;12.40;99.90;;;;;;5070566;28;19924;-69
2023/05/10 08:33:21;;;;;;;;;;;12.30;99.90;;;;;;5073283;28;20357;-68
2023/05/10 08:35:46;;;;;;;;;;;12.40;99.90;;;;;;5060040;28;19983;-68
2023/05/10 08:38:12;;;;;;;;;;;12.40;99.90;;;;;;5053245;28;19982;-70
2023/05/10 08:40:40;;;;;;;;;;;12.40;99.90;;;;;;5052747;28;19925;-69
2023/05/10 08:43:07;;;;;;;;;;;12.40;99.90;;;;;;5053205;28;20620;-69
2023/05/10 08:45:35;;;;;;;;;;;12.40;99.90;;;;;;5060060;28;19925;-68
2023/05/10 08:48:01;;;;;;;;;;;12.40;99.90;;;;;;5037429;28;20378;-69
2023/05/10 08:50:27;;;;;;;;;;;12.50;99.90;;;;;;5093268;28;20010;-68
2023/05/10 08:52:52;;;;;;;;;;;12.40;99.90;;;;;;5087113;28;20500;-69
2023/05/10 08:55:18;;;;;;;;;;;12.50;99.90;;;;;;5070751;28;19929;-69
2023/05/10 08:57:44;;;;;;;;;;;12.50;99.90;;;;;;5072991;28;19925;-69
2023/05/10 09:00:10;;;;;;;;;;;12.50;99.90;;;;;;5073257;28;19932;-68
2023/05/10 09:02:36;;;;;;;;;;;12.50;99.90;;;;;;5065550;28;20416;-69
2023/05/10 09:05:04;;;;;;;;;;;12.50;99.90;;;;;;5073011;28;20272;-68
2023/05/10 09:07:30;;;;;;;;;;;12.50;99.90;;;;;;5072641;28;20378;-69
2023/05/10 09:09:56;;;;;;;;;;;12.50;99.90;;;;;;5072488;28;20007;-69
2023/05/10 09:12:22;;;;;;;;;;;12.60;99.90;;;;;;5086018;28;20016;-70
2023/05/10 09:14:50;;;;;;;;;;;12.60;99.90;;;;;;5072666;28;19951;-68
2023/05/10 09:17:16;;;;;;;;;;;12.60;99.90;;;;;;5067668;28;19932;-69
2023/05/10 09:19:42;;;;;;;;;;;12.60;99.90;;;;;;5057112;28;20023;-69
2023/05/10 09:22:09;;;;;;;;;;;12.60;99.90;;;;;;5058363;28;19976;-69
2023/05/10 09:24:36;;;;;;;;;;;12.70;99.90;;;;;;5076647;28;19924;-69
2023/05/10 09:27:02;;;;;;;;;;;12.60;99.90;;;;;;5076222;28;19925;-68
2023/05/10 09:29:38;;;;;;;;;;;12.70;99.90;;;;;;5076324;28;19978;-69
2023/05/10 09:32:04;;;;;;;;;;;12.80;99.90;;;;;;5072702;28;19924;-69
2023/05/10 09:34:30;;;;;;;;;;;12.90;99.90;;;;;;5057497;28;19932;-69
2023/05/10 09:36:57;;;;;;;;;;;13.10;99.90;;;;;;5070777;28;19935;-68
2023/05/10 09:39:33;;;;;;;;;;;13.20;99.90;;;;;;5072494;28;19928;-69
2023/05/10 09:42:00;;;;;;;;;;;13.30;99.90;;;;;;5072623;28;19925;-69
2023/05/10 09:44:26;;;;;;;;;;;13.30;99.90;;;;;;5056818;28;19924;-69
2023/05/10 09:46:52;;;;;;;;;;;13.40;99.90;;;;;;5065768;28;19970;-69
2023/05/10 09:49:19;;;;;;;;;;;13.40;99.90;;;;;;5076409;28;19924;-69
2023/05/10 09:51:45;;;;;;;;;;;13.40;99.90;;;;;;5076712;28;19931;-69
2023/05/10 09:54:10;;;;;;;;;;;13.50;99.90;;;;;;5075895;28;19924;-69
2023/05/10 09:56:38;;;;;;;;;;;13.50;99.90;;;;;;5076126;28;19929;-69
2023/05/10 09:59:05;;;;;;;;;;;13.60;99.90;;;;;;5059294;28;19925;-69
2023/05/10 10:01:30;;;;;;;;;;;13.60;99.90;;;;;;5055904;28;19925;-69
2023/05/10 10:03:57;;;;;;;;;;;13.60;99.90;;;;;;5056627;28;19991;-69
2023/05/10 10:06:23;;;;;;;;;;;13.60;99.90;;;;;;5047194;28;19972;-69
2023/05/10 10:08:50;;;;;;;;;;;13.60;99.90;;;;;;5069050;28;19971;-69
2023/05/10 10:11:15;;;;;;;;;;;13.60;99.90;;;;;;5067601;28;19932;-68
2023/05/10 10:13:41;;;;;;;;;;;13.70;99.90;;;;;;5055672;28;19929;-69
2023/05/10 10:16:08;;;;;;;;;;;13.90;99.90;;;;;;5055853;28;20329;-69
2023/05/10 10:18:33;;;;;;;;;;;14.00;99.90;;;;;;5057807;28;19933;-69
2023/05/10 10:20:59;;;;;;;;;;;14.30;99.90;;;;;;5075949;28;20059;-69
2023/05/10 10:23:25;;;;;;;;;;;14.30;99.90;;;;;;5057212;28;19982;-70
2023/05/10 10:25:51;;;;;;;;;;;14.30;99.90;;;;;;5057383;28;20021;-69
2023/05/10 10:28:17;;;;;;;;;;;14.40;99.90;;;;;;5056117;28;19932;-69
2023/05/10 10:30:45;;;;;;;;;;;14.40;99.90;;;;;;5055496;28;19924;-69
2023/05/10 10:33:30;;;;;;;;;;;14.40;99.90;;;;;;5055451;28;19966;-69
2023/05/10 10:35:57;;;;;;;;;;;14.40;99.90;;;;;;5070111;28;20007;-69
2023/05/10 10:38:23;;;;;;;;;;;14.30;99.90;;;;;;5077777;28;19933;-69
2023/05/10 10:41:01;;;;;;;;;;;14.40;99.90;;;;;;5074785;28;19932;-68
2023/05/10 10:43:27;;;;;;;;;;;14.40;99.90;;;;;;5075257;28;19929;-69
2023/05/10 10:46:14;;;;;;;;;;;14.50;99.90;;;;;;5075169;28;19928;-70
2023/05/10 10:48:41;;;;;;;;;;;14.50;99.90;;;;;;5070296;28;19925;-69
2023/05/10 10:51:07;;;;;;;;;;;14.60;99.90;;;;;;5054945;28;19924;-69
2023/05/10 10:53:32;;;;;;;;;;;14.70;99.90;;;;;;5055086;28;19931;-69
2023/05/10 10:56:07;;;;;;;;;;;14.80;99.90;;;;;;5036966;28;20397;-69
2023/05/10 10:58:33;;;;;;;;;;;14.70;99.90;;;;;;5057230;28;20438;-69
2023/05/10 11:01:12;;;;;;;;;;;14.70;99.90;;;;;;5066700;28;19932;-68
2023/05/10 11:03:37;;;;;;;;;;;14.70;99.90;;;;;;5054835;28;20027;-69
2023/05/10 11:06:03;;;;;;;;;;;14.70;99.90;;;;;;5054837;28;19971;-69
2023/05/10 11:08:29;;;;;;;;;;;14.70;99.90;;;;;;5075768;28;19967;-69
2023/05/10 11:11:02;;;;;;;;;;;14.80;99.90;;;;;;5074861;28;19931;-69
2023/05/10 11:13:33;;;;;;;;;;;14.80;99.90;;;;;;5071815;28;19928;-69
2023/05/10 11:16:09;;;;;;;;;;;14.90;99.90;;;;;;5054353;28;19925;-69
2023/05/10 11:18:36;;;;;;;;;;;14.90;99.90;;;;;;5054207;28;20343;-69
2023/05/10 11:21:09;;;;;;;;;;;14.80;99.90;;;;;;5054628;28;20345;-69
2023/05/10 11:23:43;;;;;;;;;;;14.90;99.90;;;;;;5065032;28;19932;-70
2023/05/10 11:26:09;;;;;;;;;;;15.00;99.90;;;;;;5056572;28;19971;-69
2023/05/10 11:28:41;;;;;;;;;;;15.00;99.90;;;;;;5060629;28;20409;-69
2023/05/10 11:31:06;;;;;;;;;;;15.00;99.90;;;;;;5050175;28;19924;-69
2023/05/10 11:33:41;;;;;;;;;;;15.10;99.90;;;;;;5071977;28;19936;-69
2023/05/10 11:36:10;;;;;;;;;;;15.10;99.90;;;;;;5058775;28;19932;-69
2023/05/10 11:38:36;;;;;;;;;;;15.20;99.90;;;;;;5071960;28;20360;-70
2023/05/10 11:41:02;;;;;;;;;;;15.00;99.90;;;;;;5071631;28;19978;-69
2023/05/10 11:43:30;;;;;;;;;;;15.00;99.90;;;;;;5073018;28;20024;-70
2023/05/10 11:45:56;;;;;;;;;;;15.00;99.90;;;;;;5070536;28;19928;-70
2023/05/10 11:48:23;;;;;;;;;;;15.00;99.90;;;;;;5071865;28;20281;-70
2023/05/10 11:50:49;;;;;;;;;;;15.00;99.90;;;;;;5065811;28;19924;-70
2023/05/10 11:53:15;;;;;;;;;;;15.10;99.90;;;;;;5069482;28;19924;-69
2023/05/10 11:55:48;;;;;;;;;;;15.10;99.90;;;;;;5071658;28;20294;-70
2023/05/10 11:58:14;;;;;;;;;;;15.10;99.90;;;;;;5073062;28;19924;-70
2023/05/10 12:00:39;;;;;;;;;;;15.00;99.90;;;;;;5070052;28;20015;-70
2023/05/10 12:03:05;;;;;;;;;;;15.00;99.90;;;;;;5067691;28;19925;-70
2023/05/10 12:05:34;;;;;;;;;;;15.10;99.90;;;;;;5071880;28;19925;-70
2023/05/10 12:08:15;;;;;;;;;;;15.00;99.90;;;;;;5075146;28;19924;-70
2023/05/10 12:10:41;;;;;;;;;;;14.90;99.90;;;;;;5069859;28;19924;-70
2023/05/10 12:13:14;;;;;;;;;;;14.80;99.90;;;;;;5062271;28;20405;-70
2023/05/10 12:15:39;;;;;;;;;;;14.80;99.90;;;;;;5053070;28;19969;-70
2023/05/10 12:18:05;;;;;;;;;;;14.80;99.90;;;;;;5071901;28;20019;-70
2023/05/10 12:20:31;;;;;;;;;;;14.80;99.90;;;;;;5069296;28;19924;-71
2023/05/10 12:22:58;;;;;;;;;;;14.70;99.90;;;;;;5062582;28;19932;-71
2023/05/10 12:25:29;;;;;;;;;;;14.70;99.90;;;;;;5068265;28;20007;-70
2023/05/10 12:27:55;;;;;;;;;;;14.70;99.90;;;;;;5063313;28;19933;-70
2023/05/10 12:30:25;;;;;;;;;;;14.60;99.90;;;;;;5052660;28;20370;-70
2023/05/10 12:32:51;;;;;;;;;;;14.60;99.90;;;;;;5071380;28;20400;-70
2023/05/10 12:35:17;;;;;;;;;;;14.60;99.90;;;;;;5069630;28;19924;-69
2023/05/10 12:37:43;;;;;;;;;;;14.50;99.90;;;;;;5070515;28;19970;-70
2023/05/10 12:40:10;;;;;;;;;;;14.50;99.90;;;;;;5053818;28;20439;-70
2023/05/10 12:42:36;;;;;;;;;;;14.50;99.90;;;;;;5069432;28;19978;-70
2023/05/10 12:45:02;;;;;;;;;;;14.50;99.90;;;;;;5072071;28;19931;-69
2023/05/10 12:47:28;;;;;;;;;;;14.50;99.90;;;;;;5071520;28;19924;-70
2023/05/10 12:49:55;;;;;;;;;;;14.60;99.90;;;;;;5067361;28;19925;-70
2023/05/10 12:52:21;;;;;;;;;;;14.60;99.90;;;;;;5069414;28;20023;-68
2023/05/10 12:54:46;;;;;;;;;;;14.60;99.90;;;;;;5064145;28;20042;-68
2023/05/10 12:57:13;;;;;;;;;;;14.70;99.90;;;;;;5058775;28;19960;-69
2023/05/10 12:59:38;;;;;;;;;;;14.60;99.90;;;;;;5057760;28;19925;-69
2023/05/10 13:02:04;;;;;;;;;;;14.60;99.90;;;;;;5065681;28;19925;-69
2023/05/10 13:04:29;;;;;;;;;;;14.60;99.90;;;;;;5062453;28;19925;-69
2023/05/10 13:06:58;;;;;;;;;;;14.60;99.90;;;;;;5058517;28;20032;-69
2023/05/10 13:09:24;;;;;;;;;;;14.60;99.90;;;;;;5070742;28;19944;-69
2023/05/10 13:11:50;;;;;;;;;;;14.70;99.90;;;;;;5064053;28;19924;-70
2023/05/10 13:14:16;;;;;;;;;;;14.70;99.90;;;;;;5054747;28;19924;-69
2023/05/10 13:16:42;;;;;;;;;;;14.80;99.90;;;;;;5072881;28;19974;-70
2023/05/10 13:19:07;;;;;;;;;;;14.80;99.90;;;;;;5072521;28;20366;-70
2023/05/10 13:21:33;;;;;;;;;;;14.80;99.90;;;;;;5072219;28;19932;-69
2023/05/10 13:23:58;;;;;;;;;;;14.90;99.90;;;;;;5072487;28;19935;-70
2023/05/10 13:26:25;;;;;;;;;;;14.80;99.90;;;;;;5072896;28;19924;-70
2023/05/10 13:28:51;;;;;;;;;;;14.80;99.90;;;;;;5072512;28;19938;-70
2023/05/10 13:31:16;;;;;;;;;;;14.90;99.90;;;;;;5073083;28;19950;-70
2023/05/10 13:33:42;;;;;;;;;;;14.80;99.90;;;;;;5072759;28;19925;-69
2023/05/10 13:36:07;;;;;;;;;;;14.80;99.90;;;;;;5067895;28;19924;-70
2023/05/10 13:38:33;;;;;;;;;;;14.80;99.90;;;;;;5058497;28;20401;-69
2023/05/10 13:40:58;;;;;;;;;;;14.80;99.90;;;;;;5070404;28;20003;-69
2023/05/10 13:43:24;;;;;;;;;;;14.80;99.90;;;;;;5048190;28;19925;-70
2023/05/10 13:45:49;;;;;;;;;;;14.80;99.90;;;;;;5034647;28;19951;-69
2023/05/10 13:48:15;;;;;;;;;;;14.80;99.90;;;;;;5052783;28;19963;-69
2023/05/10 13:50:41;;;;;;;;;;;14.80;99.90;;;;;;5034860;28;20205;-70
2023/05/10 13:53:06;;;;;;;;;;;14.70;99.90;;;;;;5052109;28;19932;-70
2023/05/10 13:55:32;;;;;;;;;;;14.60;99.90;;;;;;5061629;28;19924;-71
2023/05/10 13:57:57;;;;;;;;;;;14.70;99.90;;;;;;5063548;28;19932;-70
2023/05/10 14:00:23;;;;;;;;;;;14.60;99.90;;;;;;5072223;28;19931;-70
2023/05/10 14:02:48;;;;;;;;;;;14.70;99.90;;;;;;5067041;28;19925;-70
2023/05/10 14:05:14;;;;;;;;;;;14.70;99.90;;;;;;5067904;28;20370;-70
2023/05/10 14:07:39;;;;;;;;;;;14.70;99.90;;;;;;5066135;28;19951;-70
2023/05/10 14:10:05;;;;;;;;;;;14.70;99.90;;;;;;5063399;28;20389;-70
2023/05/10 14:12:31;;;;;;;;;;;14.80;99.90;;;;;;5066886;28;19928;-70
2023/05/10 14:14:57;;;;;;;;;;;14.80;99.90;;;;;;5058112;28;19926;-70